sensor_id;sensor_type;location;lat;lon;timestamp;temperature;humidity
254;DHT22;590;48.772;8.846;2022-11-20T00:01:28;6.40;99.90
254;DHT22;590;48.772;8.846;2022-11-20T00:03:58;6.40;99.90
254;DHT22;590;48.772;8.846;2022-11-20T00:06:27;6.40;99.90
254;DHT22;590;48.772;8.846;2022-11-20T00:08:56;6.40;99.90
254;DHT22;590;48.772;8.846;2022-11-20T00:11:26;6.40;99.90
254;DHT22;590;48.772;8.846;2022-11-20T00:13:57;6.40;99.90
254;DHT22;590;48.772;8.846;2022-11-20T00:16:26;6.40;99.90
254;DHT22;590;48.772;8.846;2022-11-20T00:18:55;6.40;99.90
254;DHT22;590;48.772;8.846;2022-11-20T00:21:24;6.40;99.90
254;DHT22;590;48.772;8.846;2022-11-20T00:23:54;6.40;99.90
254;DHT22;590;48.772;8.846;2022-11-20T00:26:24;6.40;99.90
254;DHT22;590;48.772;8.846;2022-11-20T00:28:55;6.40;99.90
254;DHT22;590;48.772;8.846;2022-11-20T00:31:23;6.40;99.90
254;DHT22;590;48.772;8.846;2022-11-20T00:33:52;6.40;99.90
254;DHT22;590;48.772;8.846;2022-11-20T00:36:22;6.40;99.90
254;DHT22;590;48.772;8.846;2022-11-20T00:38:52;6.40;99.90
254;DHT22;590;48.772;8.846;2022-11-20T00:41:24;6.40;99.90
254;DHT22;590;48.772;8.846;2022-11-20T00:43:55;6.40;99.90
254;DHT22;590;48.772;8.846;2022-11-20T00:46:24;6.40;99.90
254;DHT22;590;48.772;8.846;2022-11-20T00:48:52;6.30;99.90
254;DHT22;590;48.772;8.846;2022-11-20T00:51:24;6.40;99.90
254;DHT22;590;48.772;8.846;2022-11-20T00:53:55;6.40;99.90
254;DHT22;590;48.772;8.846;2022-11-20T00:56:23;6.40;99.90
254;DHT22;590;48.772;8.846;2022-11-20T00:58:51;6.40;99.90
254;DHT22;590;48.772;8.846;2022-11-20T01:01:22;6.40;99.90
254;DHT22;590;48.772;8.846;2022-11-20T01:03:52;6.40;99.90
254;DHT22;590;48.772;8.846;2022-11-20T01:06:22;6.30;99.90
254;DHT22;590;48.772;8.846;2022-11-20T01:08:52;6.30;99.90
254;DHT22;590;48.772;8.846;2022-11-20T01:11:22;6.30;99.90
254;DHT22;590;48.772;8.846;2022-11-20T01:13:51;6.20;99.90
254;DHT22;590;48.772;8.846;2022-11-20T01:16:22;6.20;99.90
254;DHT22;590;48.772;8.846;2022-11-20T01:18:52;6.20;99.90
254;DHT22;590;48.772;8.846;2022-11-20T01:21:22;6.20;99.90
254;DHT22;590;48.772;8.846;2022-11-20T01:23:51;6.10;99.90
254;DHT22;590;48.772;8.846;2022-11-20T01:26:21;6.10;99.90
254;DHT22;590;48.772;8.846;2022-11-20T01:28:50;6.10;99.90
254;DHT22;590;48.772;8.846;2022-11-20T01:31:22;6.00;99.90
254;DHT22;590;48.772;8.846;2022-11-20T01:33:52;6.00;99.90
254;DHT22;590;48.772;8.846;2022-11-20T01:36:22;5.90;99.90
254;DHT22;590;48.772;8.846;2022-11-20T01:38:51;5.90;99.90
254;DHT22;590;48.772;8.846;2022-11-20T01:41:20;5.90;99.90
254;DHT22;590;48.772;8.846;2022-11-20T01:44:06;5.80;99.90
254;DHT22;590;48.772;8.846;2022-11-20T01:46:37;5.70;99.90
254;DHT22;590;48.772;8.846;2022-11-20T01:49:09;5.70;99.90
254;DHT22;590;48.772;8.846;2022-11-20T01:51:41;5.70;99.90
254;DHT22;590;48.772;8.846;2022-11-20T01:54:13;5.60;99.90
254;DHT22;590;48.772;8.846;2022-11-20T01:56:44;5.60;99.90
254;DHT22;590;48.772;8.846;2022-11-20T01:59:16;5.60;99.90
254;DHT22;590;48.772;8.846;2022-11-20T02:01:47;5.60;99.90
254;DHT22;590;48.772;8.846;2022-11-20T02:04:15;5.60;99.90
254;DHT22;590;48.772;8.846;2022-11-20T02:06:47;5.60;99.90
254;DHT22;590;48.772;8.846;2022-11-20T02:09:16;5.60;99.90
254;DHT22;590;48.772;8.846;2022-11-20T02:11:44;5.60;99.90
254;DHT22;590;48.772;8.846;2022-11-20T02:14:14;5.50;99.90
254;DHT22;590;48.772;8.846;2022-11-20T02:16:46;5.50;99.90
254;DHT22;590;48.772;8.846;2022-11-20T02:19:22;5.40;99.90
254;DHT22;590;48.772;8.846;2022-11-20T02:21:57;5.30;99.90
254;DHT22;590;48.772;8.846;2022-11-20T02:24:29;5.20;99.90
254;DHT22;590;48.772;8.846;2022-11-20T02:26:59;5.20;99.90
254;DHT22;590;48.772;8.846;2022-11-20T02:29:33;5.20;99.90
254;DHT22;590;48.772;8.846;2022-11-20T02:32:02;5.20;99.90
254;DHT22;590;48.772;8.846;2022-11-20T02:34:31;5.20;99.90
254;DHT22;590;48.772;8.846;2022-11-20T02:36:59;5.20;99.90
254;DHT22;590;48.772;8.846;2022-11-20T02:39:29;5.30;99.90
254;DHT22;590;48.772;8.846;2022-11-20T02:41:57;5.30;99.90
254;DHT22;590;48.772;8.846;2022-11-20T02:44:25;5.30;99.90
254;DHT22;590;48.772;8.846;2022-11-20T02:46:53;5.40;99.90
254;DHT22;590;48.772;8.846;2022-11-20T02:49:24;5.40;99.90
254;DHT22;590;48.772;8.846;2022-11-20T02:51:52;5.50;99.90
254;DHT22;590;48.772;8.846;2022-11-20T02:54:20;5.50;99.90
254;DHT22;590;48.772;8.846;2022-11-20T02:56:50;5.50;99.90
254;DHT22;590;48.772;8.846;2022-11-20T02:59:18;5.60;99.90
254;DHT22;590;48.772;8.846;2022-11-20T03:01:46;5.60;99.90
254;DHT22;590;48.772;8.846;2022-11-20T03:04:14;5.50;99.90
254;DHT22;590;48.772;8.846;2022-11-20T03:06:42;5.50;99.90
254;DHT22;590;48.772;8.846;2022-11-20T03:09:10;5.50;99.90
254;DHT22;590;48.772;8.846;2022-11-20T03:11:38;5.50;99.90
254;DHT22;590;48.772;8.846;2022-11-20T03:14:08;5.50;99.90
254;DHT22;590;48.772;8.846;2022-11-20T03:16:36;5.50;99.90
254;DHT22;590;48.772;8.846;2022-11-20T03:19:04;5.40;99.90
254;DHT22;590;48.772;8.846;2022-11-20T03:21:33;5.40;99.90
254;DHT22;590;48.772;8.846;2022-11-20T03:24:01;5.30;99.90
254;DHT22;590;48.772;8.846;2022-11-20T03:26:29;5.30;99.90
254;DHT22;590;48.772;8.846;2022-11-20T03:28:58;5.20;99.90
254;DHT22;590;48.772;8.846;2022-11-20T03:31:29;5.20;99.90
254;DHT22;590;48.772;8.846;2022-11-20T03:33:58;5.10;99.90
254;DHT22;590;48.772;8.846;2022-11-20T03:36:28;5.10;99.90
254;DHT22;590;48.772;8.846;2022-11-20T03:38:56;5.00;99.90
254;DHT22;590;48.772;8.846;2022-11-20T03:41:26;5.00;99.90
254;DHT22;590;48.772;8.846;2022-11-20T03:43:56;5.00;99.90
254;DHT22;590;48.772;8.846;2022-11-20T03:46:24;5.10;99.90
254;DHT22;590;48.772;8.846;2022-11-20T03:48:54;5.10;99.90
254;DHT22;590;48.772;8.846;2022-11-20T03:51:23;5.10;99.90
254;DHT22;590;48.772;8.846;2022-11-20T03:53:55;5.10;99.90
254;DHT22;590;48.772;8.846;2022-11-20T03:56:25;5.10;99.90
254;DHT22;590;48.772;8.846;2022-11-20T03:58:54;5.10;99.90
254;DHT22;590;48.772;8.846;2022-11-20T04:01:24;5.10;99.90
254;DHT22;590;48.772;8.846;2022-11-20T04:03:55;5.10;99.90
254;DHT22;590;48.772;8.846;2022-11-20T04:06:26;5.10;99.90
254;DHT22;590;48.772;8.846;2022-11-20T04:08:55;5.10;99.90
254;DHT22;590;48.772;8.846;2022-11-20T04:11:24;5.10;99.90
254;DHT22;590;48.772;8.846;2022-11-20T04:13:54;5.10;99.90
254;DHT22;590;48.772;8.846;2022-11-20T04:16:24;5.10;99.90
254;DHT22;590;48.772;8.846;2022-11-20T04:18:54;5.10;99.90
254;DHT22;590;48.772;8.846;2022-11-20T04:21:24;5.00;99.90
254;DHT22;590;48.772;8.846;2022-11-20T04:23:52;5.00;99.90
254;DHT22;590;48.772;8.846;2022-11-20T04:26:22;5.10;99.90
254;DHT22;590;48.772;8.846;2022-11-20T04:28:50;5.10;99.90
254;DHT22;590;48.772;8.846;2022-11-20T04:31:20;5.10;99.90
254;DHT22;590;48.772;8.846;2022-11-20T04:33:49;5.00;99.90
254;DHT22;590;48.772;8.846;2022-11-20T04:36:20;5.10;99.90
254;DHT22;590;48.772;8.846;2022-11-20T04:38:50;5.10;99.90
254;DHT22;590;48.772;8.846;2022-11-20T04:41:24;5.10;99.90
254;DHT22;590;48.772;8.846;2022-11-20T04:43:54;5.10;99.90
254;DHT22;590;48.772;8.846;2022-11-20T04:46:27;5.20;99.90
254;DHT22;590;48.772;8.846;2022-11-20T04:48:55;5.20;99.90
254;DHT22;590;48.772;8.846;2022-11-20T04:51:25;5.20;99.90
254;DHT22;590;48.772;8.846;2022-11-20T04:53:54;5.20;99.90
254;DHT22;590;48.772;8.846;2022-11-20T04:56:22;5.30;99.90
254;DHT22;590;48.772;8.846;2022-11-20T04:58:50;5.30;99.90
254;DHT22;590;48.772;8.846;2022-11-20T05:01:19;5.30;99.90
254;DHT22;590;48.772;8.846;2022-11-20T05:03:48;5.40;99.90
254;DHT22;590;48.772;8.846;2022-11-20T05:06:18;5.40;99.90
254;DHT22;590;48.772;8.846;2022-11-20T05:08:48;5.40;99.90
254;DHT22;590;48.772;8.846;2022-11-20T05:11:19;5.50;99.90
254;DHT22;590;48.772;8.846;2022-11-20T05:13:47;5.50;99.90
254;DHT22;590;48.772;8.846;2022-11-20T05:16:17;5.50;99.90
254;DHT22;590;48.772;8.846;2022-11-20T05:18:47;5.50;99.90
254;DHT22;590;48.772;8.846;2022-11-20T05:21:15;5.60;99.90
254;DHT22;590;48.772;8.846;2022-11-20T05:23:44;5.60;99.90
254;DHT22;590;48.772;8.846;2022-11-20T05:26:15;5.60;99.90
254;DHT22;590;48.772;8.846;2022-11-20T05:28:44;5.60;99.90
254;DHT22;590;48.772;8.846;2022-11-20T05:31:15;5.70;99.90
254;DHT22;590;48.772;8.846;2022-11-20T05:33:51;5.70;99.90
254;DHT22;590;48.772;8.846;2022-11-20T05:36:19;5.70;99.90
254;DHT22;590;48.772;8.846;2022-11-20T05:38:47;5.70;99.90
254;DHT22;590;48.772;8.846;2022-11-20T05:41:20;5.70;99.90
254;DHT22;590;48.772;8.846;2022-11-20T05:43:49;5.80;99.90
254;DHT22;590;48.772;8.846;2022-11-20T05:46:20;5.80;99.90
254;DHT22;590;48.772;8.846;2022-11-20T05:48:55;5.80;99.90
254;DHT22;590;48.772;8.846;2022-11-20T05:51:24;5.80;99.90
254;DHT22;590;48.772;8.846;2022-11-20T05:53:52;5.90;99.90
254;DHT22;590;48.772;8.846;2022-11-20T05:56:22;5.90;99.90
254;DHT22;590;48.772;8.846;2022-11-20T05:58:50;5.90;99.90
254;DHT22;590;48.772;8.846;2022-11-20T06:01:19;6.00;99.90
254;DHT22;590;48.772;8.846;2022-11-20T06:03:48;6.00;99.90
254;DHT22;590;48.772;8.846;2022-11-20T06:06:18;6.10;99.90
254;DHT22;590;48.772;8.846;2022-11-20T06:08:47;6.20;99.90
254;DHT22;590;48.772;8.846;2022-11-20T06:11:16;6.20;99.90
254;DHT22;590;48.772;8.846;2022-11-20T06:13:46;6.20;99.90
254;DHT22;590;48.772;8.846;2022-11-20T06:16:15;6.30;99.90
254;DHT22;590;48.772;8.846;2022-11-20T06:18:44;6.30;99.90
254;DHT22;590;48.772;8.846;2022-11-20T06:21:14;6.30;99.90
254;DHT22;590;48.772;8.846;2022-11-20T06:23:43;6.40;99.90
254;DHT22;590;48.772;8.846;2022-11-20T06:26:14;6.40;99.90
254;DHT22;590;48.772;8.846;2022-11-20T06:28:42;6.40;99.90
254;DHT22;590;48.772;8.846;2022-11-20T06:31:13;6.40;99.90
254;DHT22;590;48.772;8.846;2022-11-20T06:33:41;6.40;99.90
254;DHT22;590;48.772;8.846;2022-11-20T06:36:10;6.50;99.90
254;DHT22;590;48.772;8.846;2022-11-20T06:38:39;6.50;99.90
254;DHT22;590;48.772;8.846;2022-11-20T06:41:11;6.50;99.90
254;DHT22;590;48.772;8.846;2022-11-20T06:43:41;6.50;99.90
254;DHT22;590;48.772;8.846;2022-11-20T06:46:12;6.50;99.90
254;DHT22;590;48.772;8.846;2022-11-20T06:48:40;6.60;99.90
254;DHT22;590;48.772;8.846;2022-11-20T06:51:08;6.60;99.90
254;DHT22;590;48.772;8.846;2022-11-20T06:53:37;6.60;99.90
254;DHT22;590;48.772;8.846;2022-11-20T06:56:06;6.60;99.90
254;DHT22;590;48.772;8.846;2022-11-20T06:58:35;6.60;99.90
254;DHT22;590;48.772;8.846;2022-11-20T07:01:05;6.60;99.90
254;DHT22;590;48.772;8.846;2022-11-20T07:03:34;6.60;99.90
254;DHT22;590;48.772;8.846;2022-11-20T07:06:03;6.60;99.90
254;DHT22;590;48.772;8.846;2022-11-20T07:08:31;6.70;99.90
254;DHT22;590;48.772;8.846;2022-11-20T07:11:00;6.70;99.90
254;DHT22;590;48.772;8.846;2022-11-20T07:13:29;6.70;99.90
254;DHT22;590;48.772;8.846;2022-11-20T07:15:59;6.70;99.90
254;DHT22;590;48.772;8.846;2022-11-20T07:18:28;6.70;99.90
254;DHT22;590;48.772;8.846;2022-11-20T07:21:00;6.70;99.90
254;DHT22;590;48.772;8.846;2022-11-20T07:23:28;6.70;99.90
254;DHT22;590;48.772;8.846;2022-11-20T07:25:56;6.80;99.90
254;DHT22;590;48.772;8.846;2022-11-20T07:28:24;6.80;99.90
254;DHT22;590;48.772;8.846;2022-11-20T07:30:53;6.90;99.90
254;DHT22;590;48.772;8.846;2022-11-20T07:33:21;7.00;99.90
254;DHT22;590;48.772;8.846;2022-11-20T07:35:49;7.10;99.90
254;DHT22;590;48.772;8.846;2022-11-20T07:38:21;7.10;99.90
254;DHT22;590;48.772;8.846;2022-11-20T07:40:53;7.20;99.90
254;DHT22;590;48.772;8.846;2022-11-20T07:43:21;7.20;99.90
254;DHT22;590;48.772;8.846;2022-11-20T07:45:49;7.20;99.90
254;DHT22;590;48.772;8.846;2022-11-20T07:48:17;7.20;99.90
254;DHT22;590;48.772;8.846;2022-11-20T07:50:45;7.20;99.90
254;DHT22;590;48.772;8.846;2022-11-20T07:53:13;7.20;99.90
254;DHT22;590;48.772;8.846;2022-11-20T07:55:48;7.20;99.90
254;DHT22;590;48.772;8.846;2022-11-20T07:58:19;7.20;99.90
254;DHT22;590;48.772;8.846;2022-11-20T08:00:47;7.20;99.90
254;DHT22;590;48.772;8.846;2022-11-20T08:03:15;7.20;99.90
254;DHT22;590;48.772;8.846;2022-11-20T08:05:51;7.10;99.90
254;DHT22;590;48.772;8.846;2022-11-20T08:08:19;7.10;99.90
254;DHT22;590;48.772;8.846;2022-11-20T08:10:48;7.20;99.90
254;DHT22;590;48.772;8.846;2022-11-20T08:13:16;7.20;99.90
254;DHT22;590;48.772;8.846;2022-11-20T08:16:02;7.30;99.90
254;DHT22;590;48.772;8.846;2022-11-20T08:18:30;7.30;99.90
254;DHT22;590;48.772;8.846;2022-11-20T08:21:01;7.30;99.90
254;DHT22;590;48.772;8.846;2022-11-20T08:23:29;7.40;99.90
254;DHT22;590;48.772;8.846;2022-11-20T08:25:59;7.50;99.90
254;DHT22;590;48.772;8.846;2022-11-20T08:28:27;7.50;99.90
254;DHT22;590;48.772;8.846;2022-11-20T08:30:58;7.60;99.90
254;DHT22;590;48.772;8.846;2022-11-20T08:33:27;7.60;99.90
254;DHT22;590;48.772;8.846;2022-11-20T08:35:58;7.70;99.90
254;DHT22;590;48.772;8.846;2022-11-20T08:38:26;7.80;99.90
254;DHT22;590;48.772;8.846;2022-11-20T08:40:56;7.80;99.90
254;DHT22;590;48.772;8.846;2022-11-20T08:43:44;7.80;99.90
254;DHT22;590;48.772;8.846;2022-11-20T08:46:12;7.90;99.90
254;DHT22;590;48.772;8.846;2022-11-20T08:48:41;7.90;99.90
254;DHT22;590;48.772;8.846;2022-11-20T08:51:09;7.90;99.90
254;DHT22;590;48.772;8.846;2022-11-20T08:53:37;7.90;99.90
254;DHT22;590;48.772;8.846;2022-11-20T08:56:06;7.90;99.90
254;DHT22;590;48.772;8.846;2022-11-20T08:58:34;7.90;99.90
254;DHT22;590;48.772;8.846;2022-11-20T09:01:23;7.90;99.90
254;DHT22;590;48.772;8.846;2022-11-20T09:03:52;7.90;99.90
254;DHT22;590;48.772;8.846;2022-11-20T09:06:20;7.90;99.90
254;DHT22;590;48.772;8.846;2022-11-20T09:08:51;7.90;99.90
254;DHT22;590;48.772;8.846;2022-11-20T09:11:20;7.90;99.90
254;DHT22;590;48.772;8.846;2022-11-20T09:13:48;7.90;99.90
254;DHT22;590;48.772;8.846;2022-11-20T09:16:16;7.80;99.90
254;DHT22;590;48.772;8.846;2022-11-20T09:18:45;7.80;99.90
254;DHT22;590;48.772;8.846;2022-11-20T09:21:27;7.80;99.90
254;DHT22;590;48.772;8.846;2022-11-20T09:23:55;7.70;99.90
254;DHT22;590;48.772;8.846;2022-11-20T09:26:23;7.70;99.90
254;DHT22;590;48.772;8.846;2022-11-20T09:28:51;7.60;99.90
254;DHT22;590;48.772;8.846;2022-11-20T09:31:25;7.60;99.90
254;DHT22;590;48.772;8.846;2022-11-20T09:33:54;7.60;99.90
254;DHT22;590;48.772;8.846;2022-11-20T09:36:22;7.60;99.90
254;DHT22;590;48.772;8.846;2022-11-20T09:38:50;7.50;99.90
254;DHT22;590;48.772;8.846;2022-11-20T09:41:32;7.60;99.90
254;DHT22;590;48.772;8.846;2022-11-20T09:44:12;7.60;99.90
254;DHT22;590;48.772;8.846;2022-11-20T09:46:50;7.60;99.90
254;DHT22;590;48.772;8.846;2022-11-20T09:49:31;7.60;99.90
254;DHT22;590;48.772;8.846;2022-11-20T09:52:07;7.60;99.90
254;DHT22;590;48.772;8.846;2022-11-20T09:54:39;7.70;99.90
254;DHT22;590;48.772;8.846;2022-11-20T09:57:12;7.70;99.90
254;DHT22;590;48.772;8.846;2022-11-20T09:59:42;7.80;99.90
254;DHT22;590;48.772;8.846;2022-11-20T10:02:19;7.90;99.90
254;DHT22;590;48.772;8.846;2022-11-20T10:04:57;8.00;99.90
254;DHT22;590;48.772;8.846;2022-11-20T10:07:30;8.00;99.90
254;DHT22;590;48.772;8.846;2022-11-20T10:10:03;8.00;99.90
254;DHT22;590;48.772;8.846;2022-11-20T10:12:38;8.00;99.90
254;DHT22;590;48.772;8.846;2022-11-20T10:15:23;8.00;99.90
254;DHT22;590;48.772;8.846;2022-11-20T10:18:06;8.00;99.90
254;DHT22;590;48.772;8.846;2022-11-20T10:20:43;8.00;99.90
254;DHT22;590;48.772;8.846;2022-11-20T10:23:36;8.00;99.90
254;DHT22;590;48.772;8.846;2022-11-20T10:26:17;8.00;99.90
254;DHT22;590;48.772;8.846;2022-11-20T10:28:56;8.00;99.90
254;DHT22;590;48.772;8.846;2022-11-20T10:31:36;8.00;99.90
254;DHT22;590;48.772;8.846;2022-11-20T10:34:07;8.00;99.90
254;DHT22;590;48.772;8.846;2022-11-20T10:36:54;8.00;99.90
254;DHT22;590;48.772;8.846;2022-11-20T10:39:32;7.90;99.90
254;DHT22;590;48.772;8.846;2022-11-20T10:42:08;8.00;99.90
254;DHT22;590;48.772;8.846;2022-11-20T10:44:52;8.00;99.90
254;DHT22;590;48.772;8.846;2022-11-20T10:47:33;8.00;99.90
254;DHT22;590;48.772;8.846;2022-11-20T10:50:03;8.00;99.90
254;DHT22;590;48.772;8.846;2022-11-20T10:52:40;8.00;99.90
254;DHT22;590;48.772;8.846;2022-11-20T10:55:18;8.10;99.90
254;DHT22;590;48.772;8.846;2022-11-20T10:57:54;8.10;99.90
254;DHT22;590;48.772;8.846;2022-11-20T11:00:26;8.30;99.90
254;DHT22;590;48.772;8.846;2022-11-20T11:02:54;8.50;99.90
254;DHT22;590;48.772;8.846;2022-11-20T11:05:34;8.70;99.90
254;DHT22;590;48.772;8.846;2022-11-20T11:08:11;8.90;99.90
254;DHT22;590;48.772;8.846;2022-11-20T11:10:47;9.00;99.90
254;DHT22;590;48.772;8.846;2022-11-20T11:13:21;9.10;99.90
254;DHT22;590;48.772;8.846;2022-11-20T11:15:50;9.10;99.90
254;DHT22;590;48.772;8.846;2022-11-20T11:18:25;9.20;99.90
254;DHT22;590;48.772;8.846;2022-11-20T11:20:54;9.30;99.90
254;DHT22;590;48.772;8.846;2022-11-20T11:23:32;9.50;99.90
254;DHT22;590;48.772;8.846;2022-11-20T11:26:03;9.70;99.90
254;DHT22;590;48.772;8.846;2022-11-20T11:28:32;10.00;99.90
254;DHT22;590;48.772;8.846;2022-11-20T11:31:06;10.20;99.90
254;DHT22;590;48.772;8.846;2022-11-20T11:33:34;10.30;99.90
254;DHT22;590;48.772;8.846;2022-11-20T11:36:17;10.40;99.40
254;DHT22;590;48.772;8.846;2022-11-20T11:38:54;10.30;97.00
254;DHT22;590;48.772;8.846;2022-11-20T11:41:32;10.30;95.50
254;DHT22;590;48.772;8.846;2022-11-20T11:44:19;10.30;95.90
254;DHT22;590;48.772;8.846;2022-11-20T11:47:20;10.30;95.30
254;DHT22;590;48.772;8.846;2022-11-20T11:50:15;10.30;94.00
254;DHT22;590;48.772;8.846;2022-11-20T11:52:59;10.20;92.90
254;DHT22;590;48.772;8.846;2022-11-20T11:55:51;10.20;92.20
254;DHT22;590;48.772;8.846;2022-11-20T11:58:41;10.10;90.90
254;DHT22;590;48.772;8.846;2022-11-20T12:01:40;10.00;88.80
254;DHT22;590;48.772;8.846;2022-11-20T12:04:44;9.80;89.90
254;DHT22;590;48.772;8.846;2022-11-20T12:07:40;9.70;87.20
254;DHT22;590;48.772;8.846;2022-11-20T12:10:37;9.70;88.60
254;DHT22;590;48.772;8.846;2022-11-20T12:13:18;9.70;88.90
254;DHT22;590;48.772;8.846;2022-11-20T12:15:52;9.80;89.30
254;DHT22;590;48.772;8.846;2022-11-20T12:18:25;9.80;90.00
254;DHT22;590;48.772;8.846;2022-11-20T12:21:07;10.00;89.70
254;DHT22;590;48.772;8.846;2022-11-20T12:23:52;10.10;88.10
254;DHT22;590;48.772;8.846;2022-11-20T12:26:37;10.10;84.90
254;DHT22;590;48.772;8.846;2022-11-20T12:29:16;10.10;83.30
254;DHT22;590;48.772;8.846;2022-11-20T12:32:09;10.10;83.30
254;DHT22;590;48.772;8.846;2022-11-20T12:34:53;10.10;82.10
254;DHT22;590;48.772;8.846;2022-11-20T12:37:35;10.10;80.60
254;DHT22;590;48.772;8.846;2022-11-20T12:40:18;10.00;80.50
254;DHT22;590;48.772;8.846;2022-11-20T12:43:01;10.00;78.70
254;DHT22;590;48.772;8.846;2022-11-20T12:46:06;10.00;80.60
254;DHT22;590;48.772;8.846;2022-11-20T12:48:46;10.10;80.00
254;DHT22;590;48.772;8.846;2022-11-20T12:51:47;10.20;78.80
254;DHT22;590;48.772;8.846;2022-11-20T12:54:39;10.30;78.20
254;DHT22;590;48.772;8.846;2022-11-20T12:57:15;10.30;77.60
254;DHT22;590;48.772;8.846;2022-11-20T13:03:06;10.40;78.90
254;DHT22;590;48.772;8.846;2022-11-20T13:05:46;10.40;76.50
254;DHT22;590;48.772;8.846;2022-11-20T13:08:21;10.30;75.30
254;DHT22;590;48.772;8.846;2022-11-20T13:10:57;10.20;75.00
254;DHT22;590;48.772;8.846;2022-11-20T13:13:33;10.10;74.80
254;DHT22;590;48.772;8.846;2022-11-20T13:16:06;10.00;74.60
254;DHT22;590;48.772;8.846;2022-11-20T13:18:45;10.00;75.00
254;DHT22;590;48.772;8.846;2022-11-20T13:21:41;9.90;76.80
254;DHT22;590;48.772;8.846;2022-11-20T13:24:25;9.90;77.40
254;DHT22;590;48.772;8.846;2022-11-20T13:27:16;9.80;78.00
254;DHT22;590;48.772;8.846;2022-11-20T13:29:47;9.80;77.50
254;DHT22;590;48.772;8.846;2022-11-20T13:32:18;9.70;78.40
254;DHT22;590;48.772;8.846;2022-11-20T13:34:55;9.60;78.20
254;DHT22;590;48.772;8.846;2022-11-20T13:37:38;9.50;78.80
254;DHT22;590;48.772;8.846;2022-11-20T13:40:23;9.40;80.30
254;DHT22;590;48.772;8.846;2022-11-20T13:43:21;9.40;81.50
254;DHT22;590;48.772;8.846;2022-11-20T13:45:57;9.40;82.50
254;DHT22;590;48.772;8.846;2022-11-20T13:48:29;9.40;85.40
254;DHT22;590;48.772;8.846;2022-11-20T13:51:10;9.40;85.10
254;DHT22;590;48.772;8.846;2022-11-20T13:53:59;9.40;84.90
254;DHT22;590;48.772;8.846;2022-11-20T13:56:39;9.40;85.10
254;DHT22;590;48.772;8.846;2022-11-20T13:59:23;9.30;85.20
254;DHT22;590;48.772;8.846;2022-11-20T14:01:56;9.30;84.90
254;DHT22;590;48.772;8.846;2022-11-20T14:04:27;9.30;84.80
254;DHT22;590;48.772;8.846;2022-11-20T14:06:58;9.20;84.90
254;DHT22;590;48.772;8.846;2022-11-20T14:09:28;9.20;85.00
254;DHT22;590;48.772;8.846;2022-11-20T14:11:56;9.10;86.00
254;DHT22;590;48.772;8.846;2022-11-20T14:14:25;9.10;86.20
254;DHT22;590;48.772;8.846;2022-11-20T14:17:05;9.10;85.20
254;DHT22;590;48.772;8.846;2022-11-20T14:19:34;9.10;85.20
254;DHT22;590;48.772;8.846;2022-11-20T14:22:10;9.10;85.80
254;DHT22;590;48.772;8.846;2022-11-20T14:24:43;9.00;84.30
254;DHT22;590;48.772;8.846;2022-11-20T14:27:13;9.00;83.00
254;DHT22;590;48.772;8.846;2022-11-20T14:29:42;9.00;82.90
254;DHT22;590;48.772;8.846;2022-11-20T14:32:11;8.90;83.00
254;DHT22;590;48.772;8.846;2022-11-20T14:34:44;8.90;84.00
254;DHT22;590;48.772;8.846;2022-11-20T14:37:24;8.90;84.60
254;DHT22;590;48.772;8.846;2022-11-20T14:39:53;8.90;84.60
254;DHT22;590;48.772;8.846;2022-11-20T14:42:23;8.80;83.10
254;DHT22;590;48.772;8.846;2022-11-20T14:44:54;8.90;83.40
254;DHT22;590;48.772;8.846;2022-11-20T14:47:24;8.80;84.30
254;DHT22;590;48.772;8.846;2022-11-20T14:49:54;8.80;84.50
254;DHT22;590;48.772;8.846;2022-11-20T14:52:25;8.80;84.00
254;DHT22;590;48.772;8.846;2022-11-20T14:54:55;8.70;83.80
254;DHT22;590;48.772;8.846;2022-11-20T14:57:28;8.70;84.40
254;DHT22;590;48.772;8.846;2022-11-20T15:00:26;8.60;84.20
254;DHT22;590;48.772;8.846;2022-11-20T15:03:15;8.60;83.70
254;DHT22;590;48.772;8.846;2022-11-20T15:05:46;8.50;83.80
254;DHT22;590;48.772;8.846;2022-11-20T15:08:17;8.40;84.20
254;DHT22;590;48.772;8.846;2022-11-20T15:10:46;8.40;84.50
254;DHT22;590;48.772;8.846;2022-11-20T15:13:18;8.40;84.50
254;DHT22;590;48.772;8.846;2022-11-20T15:15:52;8.30;85.60
254;DHT22;590;48.772;8.846;2022-11-20T15:18:23;8.30;86.80
254;DHT22;590;48.772;8.846;2022-11-20T15:20:54;8.20;87.80
254;DHT22;590;48.772;8.846;2022-11-20T15:23:27;8.20;87.90
254;DHT22;590;48.772;8.846;2022-11-20T15:25:55;8.10;88.60
254;DHT22;590;48.772;8.846;2022-11-20T15:28:29;8.10;90.00
254;DHT22;590;48.772;8.846;2022-11-20T15:30:58;8.10;90.40
254;DHT22;590;48.772;8.846;2022-11-20T15:33:26;8.00;90.80
254;DHT22;590;48.772;8.846;2022-11-20T15:35:54;8.00;91.60
254;DHT22;590;48.772;8.846;2022-11-20T15:38:23;7.90;91.80
254;DHT22;590;48.772;8.846;2022-11-20T15:40:52;7.80;92.10
254;DHT22;590;48.772;8.846;2022-11-20T15:43:20;7.80;92.90
254;DHT22;590;48.772;8.846;2022-11-20T15:45:50;7.70;93.40
254;DHT22;590;48.772;8.846;2022-11-20T15:48:20;7.70;93.80
254;DHT22;590;48.772;8.846;2022-11-20T15:50:52;7.70;94.40
254;DHT22;590;48.772;8.846;2022-11-20T15:53:23;7.70;95.00
254;DHT22;590;48.772;8.846;2022-11-20T15:55:51;7.60;95.00
254;DHT22;590;48.772;8.846;2022-11-20T15:58:19;7.60;95.00
254;DHT22;590;48.772;8.846;2022-11-20T16:00:50;7.60;95.50
254;DHT22;590;48.772;8.846;2022-11-20T16:03:18;7.60;96.40
254;DHT22;590;48.772;8.846;2022-11-20T16:05:46;7.60;96.90
254;DHT22;590;48.772;8.846;2022-11-20T16:08:17;7.60;96.50
254;DHT22;590;48.772;8.846;2022-11-20T16:10:46;7.60;96.20
254;DHT22;590;48.772;8.846;2022-11-20T16:13:16;7.60;96.70
254;DHT22;590;48.772;8.846;2022-11-20T16:16:04;7.50;97.50
254;DHT22;590;48.772;8.846;2022-11-20T16:18:33;7.50;98.10
254;DHT22;590;48.772;8.846;2022-11-20T16:21:01;7.50;98.70
254;DHT22;590;48.772;8.846;2022-11-20T16:23:29;7.50;99.30
254;DHT22;590;48.772;8.846;2022-11-20T16:26:10;7.50;99.70
254;DHT22;590;48.772;8.846;2022-11-20T16:28:39;7.40;99.90
254;DHT22;590;48.772;8.846;2022-11-20T16:31:09;7.50;99.90
254;DHT22;590;48.772;8.846;2022-11-20T16:33:37;7.40;99.90
254;DHT22;590;48.772;8.846;2022-11-20T16:36:09;7.40;99.90
254;DHT22;590;48.772;8.846;2022-11-20T16:38:38;7.40;99.90
254;DHT22;590;48.772;8.846;2022-11-20T16:41:09;7.40;99.90
254;DHT22;590;48.772;8.846;2022-11-20T16:43:47;7.40;99.90
254;DHT22;590;48.772;8.846;2022-11-20T16:46:17;7.40;99.90
254;DHT22;590;48.772;8.846;2022-11-20T16:48:52;7.40;99.90
254;DHT22;590;48.772;8.846;2022-11-20T16:51:20;7.40;99.90
254;DHT22;590;48.772;8.846;2022-11-20T16:53:48;7.40;99.90
254;DHT22;590;48.772;8.846;2022-11-20T16:56:21;7.40;99.90
254;DHT22;590;48.772;8.846;2022-11-20T16:58:50;7.40;99.90
254;DHT22;590;48.772;8.846;2022-11-20T17:01:22;7.30;99.90
254;DHT22;590;48.772;8.846;2022-11-20T17:03:54;7.40;99.90
254;DHT22;590;48.772;8.846;2022-11-20T17:06:27;7.40;99.90
254;DHT22;590;48.772;8.846;2022-11-20T17:08:56;7.30;99.90
254;DHT22;590;48.772;8.846;2022-11-20T17:11:26;7.40;99.90
254;DHT22;590;48.772;8.846;2022-11-20T17:13:56;7.40;99.90
254;DHT22;590;48.772;8.846;2022-11-20T17:16:26;7.40;99.90
254;DHT22;590;48.772;8.846;2022-11-20T17:18:54;7.40;99.90
254;DHT22;590;48.772;8.846;2022-11-20T17:21:29;7.30;99.90
254;DHT22;590;48.772;8.846;2022-11-20T17:23:59;7.40;99.90
254;DHT22;590;48.772;8.846;2022-11-20T17:26:30;7.30;99.90
254;DHT22;590;48.772;8.846;2022-11-20T17:29:00;7.30;99.90
254;DHT22;590;48.772;8.846;2022-11-20T17:31:29;7.30;99.90